^^
Grace C. Lehan Memorial Weather Station Historical Data
Daily Summary for February 11, 2021 Units:  Metric    English   Both
Daily Weekly Monthly Yearly
  High: Low: Average:
Temperature: 1.3 °C -5.4 °C -2.9 °C
Dew Point: -5.7 °C -11.6 °C -8.2 °C
Humidity: 90% 51.3% 68%
Wind Speed: 11.1km/h 0km/h 2.7km/h
Wind Gust: 25.7km/h - -
Wind- - NW
Pressure: 1025.6 hPa 1021.9 hPa -
Precipitation: 0.51 mm    
 
 
Tabular Data for February 11, 2021
Time Temperature Dew Point Pressure Wind Wind Speed Wind Gust Humidity Rainfall Rate (Hourly) solar
00:04 -3.7 °C -8.4 °C 1025.3 hPa Calm     69.7% 0 mm 0 W/m2
00:09 -3.7 °C -8.4 °C 1025.3 hPa Calm     70% 0 mm 0 W/m2
00:14 -3.7 °C -8.5 °C 1024.9 hPa Calm     69.4% 0 mm 0 W/m2
00:19 -3.8 °C -8.6 °C 1024.9 hPa Calm     69% 0 mm 0 W/m2
00:24 -3.8 °C -8.6 °C 1024.9 hPa Calm     69% 0 mm 0 W/m2
00:29 -3.8 °C -8.6 °C 1024.9 hPa Calm     69.5% 0 mm 0 W/m2
00:34 -3.8 °C -8.4 °C 1024.9 hPa Calm     70% 0 mm 0 W/m2
00:39 -3.8 °C -8.5 °C 1024.9 hPa Calm     70% 0 mm 0 W/m2
00:44 -3.8 °C -8.5 °C 1024.6 hPa Calm     70% 0 mm 0 W/m2
00:49 -3.8 °C -8.7 °C 1024.6 hPa Calm     69.2% 0 mm 0 W/m2
00:54 -3.9 °C -8.7 °C 1024.6 hPa Calm     69% 0 mm 0 W/m2
00:59 -3.8 °C -8.7 °C 1024.9 hPa Calm     69% 0 mm 0 W/m2
01:04 -3.8 °C -8.6 °C 1024.9 hPa Calm     69.2% 0 mm 0 W/m2
01:09 -3.8 °C -8.5 °C 1024.6 hPa Calm     69.8% 0 mm 0 W/m2
01:14 -3.8 °C -8.7 °C 1024.9 hPa Calm     68.7% 0 mm 0 W/m2
01:19 -3.8 °C -8.8 °C 1024.9 hPa Calm     68% 0 mm 0 W/m2
01:24 -3.8 °C -8.8 °C 1024.6 hPa Calm     68% 0 mm 0 W/m2
01:29 -3.8 °C -8.8 °C 1024.6 hPa Calm     68% 0 mm 0 W/m2
01:34 -3.8 °C -8.8 °C 1024.6 hPa Calm     68% 0 mm 0 W/m2
01:39 -3.8 °C -8.8 °C 1024.6 hPa Calm     68% 0 mm 0 W/m2
01:44 -3.8 °C -8.8 °C 1024.6 hPa Calm     68% 0 mm 0 W/m2
01:49 -3.8 °C -8.6 °C 1024.6 hPa Calm     69.3% 0 mm 0 W/m2
01:54 -3.8 °C -8.4 °C 1024.6 hPa Calm     70.4% 0 mm 0 W/m2
01:59 -3.8 °C -8.3 °C 1024.6 hPa Calm     71% 0 mm 0 W/m2
02:04 -3.9 °C -8.2 °C 1024.6 hPa Calm     71.9% 0 mm 0 W/m2
02:09 -3.9 °C -8.1 °C 1024.6 hPa Calm     72.6% 0 mm 0 W/m2
02:14 -3.9 °C -8.1 °C 1024.6 hPa Calm     73.2% 0 mm 0 W/m2
02:19 -4 °C -7.8 °C 1024.6 hPa Calm     74.5% 0 mm 0 W/m2
02:24 -4.1 °C -7.7 °C 1024.6 hPa Calm     75.8% 0 mm 0 W/m2
02:29 -4.1 °C -7.6 °C 1024.6 hPa Calm     76.9% 0 mm 0 W/m2
02:34 -4.2 °C -7.4 °C 1024.6 hPa Calm     78% 0 mm 0 W/m2
02:39 -4.2 °C -7.3 °C 1024.9 hPa Calm     79% 0 mm 0 W/m2
02:44 -4.3 °C -7.2 °C 1024.9 hPa NNW 0.2 km/h 3.2 km/h 80% 0 mm 0 W/m2
02:49 -4.3 °C -7.2 °C 1024.6 hPa NNW 0.6 km/h 3.2 km/h 80.7% 0 mm 0 W/m2
02:54 -4.4 °C -7.1 °C 1024.6 hPa Calm   3.2 km/h 81.5% 0 mm 0 W/m2
02:59 -4.4 °C -7.1 °C 1024.6 hPa Calm   3.2 km/h 82% 0 mm 0 W/m2
03:04 -4.6 °C -7.1 °C 1024.6 hPa Calm   3.2 km/h 82.6% 0 mm 0 W/m2
03:09 -4.6 °C -7 °C 1024.6 hPa Calm     83% 0 mm 0 W/m2
03:14 -4.6 °C -6.9 °C 1024.6 hPa Calm     83.9% 0 mm 0 W/m2
03:19 -4.7 °C -6.9 °C 1024.6 hPa Calm     84% 0 mm 0 W/m2
03:24 -4.7 °C -6.9 °C 1024.6 hPa Calm     84.4% 0 mm 0 W/m2
03:29 -4.7 °C -6.8 °C 1024.6 hPa Calm     85% 0 mm 0 W/m2
03:34 -4.7 °C -6.8 °C 1024.6 hPa Calm     85% 0 mm 0 W/m2
03:39 -4.7 °C -6.8 °C 1024.6 hPa Calm     85% 0 mm 0 W/m2
03:44 -4.8 °C -6.9 °C 1024.6 hPa Calm     85% 0 mm 0 W/m2
03:49 -4.8 °C -6.8 °C 1024.6 hPa Calm     85.9% 0 mm 0 W/m2
03:54 -4.8 °C -6.8 °C 1024.6 hPa Calm     86% 0 mm 0 W/m2
03:59 -4.8 °C -6.8 °C 1024.6 hPa Calm     86% 0 mm 0 W/m2
04:04 -4.8 °C -6.8 °C 1024.6 hPa Calm     86% 0 mm 0 W/m2
04:09 -4.9 °C -6.7 °C 1024.3 hPa Calm     87% 0 mm 0 W/m2
04:14 -4.9 °C -6.7 °C 1024.3 hPa Calm     87% 0 mm 0 W/m2
04:19 -4.9 °C -6.8 °C 1024.6 hPa Calm     87% 0 mm 0 W/m2
04:24 -4.9 °C -6.8 °C 1024.6 hPa Calm     87% 0 mm 0 W/m2
04:29 -4.9 °C -6.7 °C 1024.6 hPa Calm     87.5% 0 mm 0 W/m2
04:34 -4.9 °C -6.6 °C 1024.6 hPa Calm     88% 0 mm 0 W/m2
04:39 -4.9 °C -6.6 °C 1024.6 hPa Calm     88% 0 mm 0 W/m2
04:44 -4.9 °C -6.6 °C 1024.6 hPa Calm     88% 0 mm 0 W/m2
04:49 -5 °C -6.7 °C 1024.6 hPa Calm     88% 0 mm 0 W/m2
04:54 -5 °C -6.7 °C 1024.6 hPa Calm     88% 0 mm 0 W/m2
04:59 -5.1 °C -6.7 °C 1024.3 hPa Calm     88% 0 mm 0 W/m2
05:04 -5.1 °C -6.8 °C 1024.3 hPa Calm     88% 0 mm 0 W/m2
05:09 -5.1 °C -6.8 °C 1024.3 hPa Calm     88% 0 mm 0 W/m2
05:14 -5.1 °C -6.8 °C 1024.3 hPa Calm     88% 0 mm 0 W/m2
05:19 -5.2 °C -6.8 °C 1024.6 hPa Calm     88% 0 mm 0 W/m2
05:24 -5.2 °C -6.9 °C 1024.6 hPa Calm     88% 0 mm 0 W/m2
05:29 -5.3 °C -6.9 °C 1024.6 hPa Calm     88% 0 mm 0 W/m2
05:34 -5.3 °C -6.9 °C 1024.6 hPa Calm     88% 0 mm 0 W/m2
05:39 -5.3 °C -7 °C 1024.6 hPa Calm     88% 0 mm 0 W/m2
05:44 -5.4 °C -7.1 °C 1024.6 hPa Calm     88% 0 mm 0 W/m2
05:49 -5.4 °C -7.1 °C 1024.6 hPa Calm     88% 0 mm 0 W/m2
05:54 -5.4 °C -7 °C 1024.6 hPa Calm     88.5% 0 mm 0 W/m2
05:59 -5.4 °C -6.9 °C 1024.6 hPa Calm     89% 0 mm 0 W/m2
06:04 -5.3 °C -6.9 °C 1024.6 hPa Calm     89% 0 mm 0 W/m2
06:09 -5.3 °C -6.8 °C 1024.3 hPa Calm     89% 0 mm 0 W/m2
06:14 -5.3 °C -6.8 °C 1024.3 hPa Calm     89% 0 mm 0 W/m2
06:19 -5.3 °C -6.8 °C 1024.3 hPa Calm     89% 0 mm 0 W/m2
06:24 -5.3 °C -6.8 °C 1024.3 hPa Calm     89% 0 mm 0 W/m2
06:29 -5.3 °C -6.8 °C 1024.3 hPa Calm     89% 0 mm 0 W/m2
06:34 -5.3 °C -6.8 °C 1024.3 hPa Calm     89% 0 mm 0 W/m2
06:39 -5.3 °C -6.9 °C 1024.3 hPa Calm     89% 0 mm 0 W/m2
06:44 -5.3 °C -6.9 °C 1023.9 hPa Calm     89% 0 mm 0 W/m2
06:49 -5.3 °C -6.9 °C 1023.9 hPa Calm     89% 0 mm 0 W/m2
06:54 -5.3 °C -6.9 °C 1023.9 hPa Calm     89% 0 mm 0 W/m2
06:59 -5.3 °C -6.9 °C 1023.9 hPa Calm     89% 0 mm 0 W/m2
07:04 -5.3 °C -6.9 °C 1023.9 hPa Calm     89% 0 mm 5 W/m2
07:09 -5.3 °C -6.8 °C 1023.9 hPa Calm     89.5% 0 mm 9 W/m2
07:14 -5.3 °C -6.7 °C 1023.9 hPa Calm     89.8% 0 mm 9 W/m2
07:19 -5.3 °C -6.8 °C 1023.9 hPa Calm     89% 0 mm 12 W/m2
07:24 -5.3 °C -6.8 °C 1023.9 hPa Calm     89% 0 mm 16 W/m2
07:29 -5.3 °C -6.8 °C 1023.9 hPa Calm     89% 0 mm 18 W/m2
07:34 -5.2 °C -6.7 °C 1023.9 hPa Calm     89% 0 mm 26 W/m2
07:39 -5.2 °C -6.7 °C 1023.9 hPa Calm     89% 0 mm 33 W/m2
07:44 -5.2 °C -6.7 °C 1024.3 hPa Calm     89% 0 mm 33 W/m2
07:49 -5.1 °C -6.4 °C 1024.3 hPa Calm     90% 0 mm 39 W/m2
07:54 -4.9 °C -6.3 °C 1024.3 hPa Calm     90% 0 mm 42 W/m2
07:59 -4.8 °C -6.2 °C 1024.3 hPa Calm     90% 0 mm 40 W/m2
08:04 -4.7 °C -6.1 °C 1024.3 hPa Calm     90% 0 mm 40 W/m2
08:09 -4.6 °C -6.1 °C 1024.3 hPa Calm     89.5% 0 mm 58 W/m2
08:14 -4.5 °C -6.1 °C 1024.3 hPa Calm     89% 0 mm 76 W/m2
08:19 -4.4 °C -5.9 °C 1024.3 hPa Calm     89% 0 mm 76 W/m2
08:24 -4.3 °C -5.8 °C 1023.9 hPa Calm     88.8% 0 mm 86 W/m2
08:29 -4.2 °C -5.8 °C 1023.9 hPa Calm     88.1% 0 mm 91 W/m2
08:34 -4 °C -5.7 °C 1023.9 hPa Calm   1.6 km/h 87.7% 0 mm 67 W/m2
08:39 -3.9 °C -5.8 °C 1024.3 hPa Calm   1.6 km/h 86.3% 0 mm 54 W/m2
08:44 -3.8 °C -5.8 °C 1024.3 hPa Calm   1.6 km/h 85.5% 0 mm 69 W/m2
08:49 -3.7 °C -5.9 °C 1024.3 hPa Calm   1.6 km/h 84.4% 0 mm 81 W/m2
08:54 -3.6 °C -6 °C 1024.3 hPa Calm   1.6 km/h 83.8% 0 mm 76 W/m2
08:59 -3.6 °C -6.1 °C 1024.3 hPa Calm   1.6 km/h 82.6% 0 mm 76 W/m2
09:04 -3.4 °C -6.3 °C 1024.3 hPa Calm   1.6 km/h 81% 0 mm 83 W/m2
09:09 -3.4 °C -6.4 °C 1024.3 hPa Calm     79.8% 0 mm 86 W/m2
09:14 -3.3 °C -6.4 °C 1024.3 hPa NNW 0.5 km/h 4.8 km/h 79.2% 0 mm 93 W/m2
09:19 -3.2 °C -6.4 °C 1024.3 hPa Calm   4.8 km/h 78.4% 0 mm 97 W/m2
09:24 -3.1 °C -6.5 °C 1024.3 hPa NNW 0.5 km/h 4.8 km/h 77.2% 0 mm 111 W/m2
09:29 -2.9 °C -6.7 °C 1024.3 hPa NNW 2.7 km/h 8 km/h 75.4% 0 mm 114 W/m2
09:34 -2.8 °C -6.9 °C 1024.3 hPa NNW 1.9 km/h 8 km/h 73.6% 0 mm 134 W/m2
09:39 -2.7 °C -6.9 °C 1024.3 hPa NNW 1 km/h 4.8 km/h 73% 0 mm 120 W/m2
09:44 -2.6 °C -6.9 °C 1023.9 hPa NNW 2.4 km/h 6.4 km/h 72.5% 0 mm 111 W/m2
09:49 -2.5 °C -6.9 °C 1023.9 hPa NNW 1.1 km/h 8 km/h 71.5% 0 mm 132 W/m2
09:54 -2.4 °C -6.9 °C 1023.9 hPa NNW 1 km/h 8 km/h 71% 0 mm 176 W/m2
09:59 -2.2 °C -6.7 °C 1023.9 hPa NNW 0.3 km/h 8 km/h 71% 0 mm 179 W/m2
10:04 -1.9 °C -6.9 °C 1023.9 hPa NNW 0.3 km/h 8 km/h 69% 0 mm 142 W/m2
10:09 -1.8 °C -6.9 °C 1023.6 hPa NNW 0.8 km/h 4.8 km/h 68% 0 mm 146 W/m2
10:14 -1.6 °C -6.8 °C 1023.6 hPa NW 2.6 km/h 9.7 km/h 67.5% 0 mm 128 W/m2
10:19 -1.4 °C -6.9 °C 1023.6 hPa NNW 3.5 km/h 11.3 km/h 66.3% 0 mm 190 W/m2
10:24 -1.3 °C -7.1 °C 1023.9 hPa WNW 4 km/h 14.5 km/h 65% 0 mm 357 W/m2
10:29 -1.1 °C -6.6 °C 1023.6 hPa NW 2.7 km/h 14.5 km/h 65.7% 0 mm 383 W/m2
10:34 -0.7 °C -6.7 °C 1023.6 hPa NW 1.8 km/h 14.5 km/h 63.8% 0 mm 357 W/m2
10:39 -0.4 °C -6.6 °C 1023.9 hPa NW 3.7 km/h 17.7 km/h 63.5% 0 mm 492 W/m2
10:44 -0.2 °C -6.8 °C 1023.9 hPa WNW 3.2 km/h 17.7 km/h 61% 0 mm 457 W/m2
10:49 -0.1 °C -6.8 °C 1023.6 hPa NNW 3.7 km/h 17.7 km/h 60.3% 0 mm 566 W/m2
10:54 0.2 °C -6.8 °C 1023.6 hPa North 4.2 km/h 17.7 km/h 59.5% 0 mm 559 W/m2
10:59 0.3 °C -6.9 °C 1023.6 hPa NNW 3.2 km/h 17.7 km/h 58.3% 0 mm 483 W/m2
11:04 0.3 °C -7.1 °C 1023.6 hPa NNW 0.8 km/h 17.7 km/h 57.9% 0 mm 550 W/m2
11:09 0.4 °C -6.6 °C 1023.6 hPa NNW 1.6 km/h 9.7 km/h 59.4% 0 mm 543 W/m2
11:14 0.7 °C -6.6 °C 1023.6 hPa NNW 6.8 km/h 17.7 km/h 58% 0 mm 568 W/m2
11:19 0.8 °C -6.7 °C 1023.6 hPa NW 2.6 km/h 17.7 km/h 57.4% 0.25 mm 329 W/m2
11:24 0.8 °C -6.7 °C 1023.6 hPa NNW 3.4 km/h 17.7 km/h 57% 0.25 mm 315 W/m2
11:29 0.8 °C -6.7 °C 1023.6 hPa NW 3.5 km/h 17.7 km/h 57% 0.25 mm 287 W/m2
11:34 0.8 °C -6.8 °C 1023.6 hPa NW 5.1 km/h 17.7 km/h 56.6% 0.25 mm 272 W/m2
11:39 0.8 °C -6.9 °C 1023.2 hPa NNW 2.9 km/h 12.9 km/h 56.6% 0.25 mm 274 W/m2
11:44 0.7 °C -6.9 °C 1023.2 hPa NNE 0.5 km/h 12.9 km/h 56.5% 0.25 mm 288 W/m2
11:49 0.7 °C -6.6 °C 1023.2 hPa North 3.7 km/h 12.9 km/h 58.3% 0.25 mm 315 W/m2
11:54 0.8 °C -6.3 °C 1023.2 hPa NNW 0.3 km/h 12.9 km/h 58.9% 0.25 mm 292 W/m2
11:59 0.9 °C -6.4 °C 1022.9 hPa NNW 1.6 km/h 12.9 km/h 57.9% 0.25 mm 297 W/m2
12:00 0.9 °C -6.7 °C 1022.9 hPa Calm   12.9 km/h 57% 0.25 mm 211 W/m2
12:09 0.9 °C -6.3 °C 1022.9 hPa NNW 2.7 km/h 8 km/h 58.2% 0.25 mm 271 W/m2
12:14 1.1 °C -6.5 °C 1022.9 hPa NW 6.1 km/h 17.7 km/h 56.8% 0.25 mm 309 W/m2
12:19 1.2 °C -6.4 °C 1022.6 hPa NW 6.4 km/h 19.3 km/h 57% 0.25 mm 309 W/m2
12:24 1.2 °C -6.3 °C 1022.9 hPa NW 0.6 km/h 19.3 km/h 57.3% 0.25 mm 287 W/m2
12:29 1.2 °C -6.5 °C 1022.9 hPa NW 3.5 km/h 19.3 km/h 56.5% 0.25 mm 292 W/m2
12:34 1.1 °C -6.7 °C 1022.9 hPa NNW 7.9 km/h 19.3 km/h 56% 0.25 mm 295 W/m2
12:39 1 °C -6.9 °C 1022.9 hPa North 6.1 km/h 19.3 km/h 55.7% 0 mm 301 W/m2
12:44 0.9 °C -6.7 °C 1022.9 hPa NW 6 km/h 19.3 km/h 56.9% 0 mm 304 W/m2
12:49 0.9 °C -6.5 °C 1022.9 hPa NNW 4.7 km/h 19.3 km/h 57.6% 0 mm 294 W/m2
12:54 1 °C -6.7 °C 1022.6 hPa NNW 5.6 km/h 19.3 km/h 56.4% 0 mm 288 W/m2
12:59 1 °C -6.7 °C 1022.6 hPa North 7.2 km/h 19.3 km/h 56.3% 0 mm 281 W/m2
13:04 1 °C -6.6 °C 1022.6 hPa NNW 5.8 km/h 19.3 km/h 56.8% 0 mm 287 W/m2
13:09 1 °C -6.7 °C 1022.6 hPa NNW 6.3 km/h 16.1 km/h 56.3% 0 mm 285 W/m2
13:14 0.9 °C -6.9 °C 1022.2 hPa North 4.8 km/h 16.1 km/h 55.7% 0 mm 258 W/m2
13:19 0.9 °C -6.9 °C 1022.2 hPa NNE 1.8 km/h 16.1 km/h 56.1% 0 mm 258 W/m2
13:24 0.9 °C -6.9 °C 1022.2 hPa NW 3.1 km/h 16.1 km/h 56% 0 mm 232 W/m2
13:29 0.9 °C -7 °C 1022.2 hPa NNW 2.6 km/h 17.7 km/h 55.2% 0 mm 262 W/m2
13:34 1 °C -7.2 °C 1022.2 hPa WNW 7.4 km/h 19.3 km/h 54.5% 0 mm 121 W/m2
13:39 1.1 °C -7.2 °C 1022.2 hPa WNW 8.2 km/h 24.1 km/h 54% 0 mm 181 W/m2
13:44 1.2 °C -6.8 °C 1022.2 hPa WNW 2.3 km/h 24.1 km/h 55.3% 0 mm 190 W/m2
13:49 1.3 °C -7.1 °C 1022.2 hPa NW 9.7 km/h 24.1 km/h 53.6% 0 mm 336 W/m2
13:54 1.2 °C -7.6 °C 1022.2 hPa NW 7.1 km/h 24.1 km/h 52% 0 mm 513 W/m2
13:59 1.1 °C -7.7 °C 1022.2 hPa NW 10.5 km/h 24.1 km/h 52% 0 mm 513 W/m2
14:04 1.1 °C -7.7 °C 1022.2 hPa NW 7.9 km/h 24.1 km/h 52.2% 0 mm 77 W/m2
14:09 1 °C -7.6 °C 1022.2 hPa NW 8.9 km/h 22.5 km/h 52.5% 0 mm 461 W/m2
14:14 0.8 °C -7.4 °C 1021.9 hPa North 4.8 km/h 22.5 km/h 53.8% 0 mm 461 W/m2
14:19 0.8 °C -7.4 °C 1021.9 hPa NW 3.5 km/h 22.5 km/h 53.8% 0 mm 134 W/m2
14:30 0.9 °C -7.6 °C 1021.9 hPa NW 6.4 km/h 24.1 km/h 53% 0 mm 125 W/m2
15:00 0.9 °C -7.8 °C 1021.9 hPa NW 6.4 km/h 20.9 km/h 52% 0.25 mm 263 W/m2
15:30 0.3 °C -8.4 °C 1021.9 hPa NW 8 km/h 25.7 km/h 52% 0.25 mm 57 W/m2
16:04 -0.2 °C -8.7 °C 1022.2 hPa NW 10.9 km/h 25.7 km/h 52.9% 0.25 mm 57 W/m2
16:09 -0.4 °C -9 °C 1022.6 hPa NW 11.1 km/h 22.5 km/h 52% 0.25 mm 40 W/m2
16:14 -0.5 °C -9.2 °C 1022.6 hPa NW 10.9 km/h 24.1 km/h 52% 0.25 mm 35 W/m2
16:19 -0.7 °C -9.4 °C 1022.2 hPa NW 9.2 km/h 24.1 km/h 51.7% 0.25 mm 37 W/m2
16:24 -0.8 °C -9.4 °C 1022.2 hPa NW 10.6 km/h 24.1 km/h 52% 0.25 mm 37 W/m2
16:29 -0.9 °C -9.6 °C 1022.2 hPa NW 10.6 km/h 24.1 km/h 52% 0.25 mm 35 W/m2
16:34 -1.1 °C -9.8 °C 1022.6 hPa NW 9.3 km/h 24.1 km/h 51.7% 0.25 mm 25 W/m2
16:39 -1.2 °C -9.9 °C 1022.6 hPa NW 9.7 km/h 25.7 km/h 51.6% 0 mm 21 W/m2
16:44 -1.2 °C -10 °C 1022.2 hPa NW 10.5 km/h 25.7 km/h 51.3% 0 mm 21 W/m2
16:49 -1.3 °C -9.9 °C 1022.6 hPa WNW 7.7 km/h 25.7 km/h 52% 0 mm 18 W/m2
16:54 -1.4 °C -10 °C 1022.6 hPa WNW 10.1 km/h 25.7 km/h 52% 0 mm 18 W/m2
16:59 -1.5 °C -10.1 °C 1022.9 hPa NW 9 km/h 25.7 km/h 52% 0 mm 16 W/m2
17:04 -1.6 °C -9.9 °C 1022.9 hPa NW 5.1 km/h 25.7 km/h 53% 0 mm 11 W/m2
17:09 -1.7 °C -10 °C 1022.9 hPa NW 7.7 km/h 17.7 km/h 53% 0 mm 9 W/m2
17:14 -1.7 °C -10.1 °C 1022.9 hPa NW 9.2 km/h 17.7 km/h 53% 0 mm 0 W/m2
17:19 -1.8 °C -10.1 °C 1022.9 hPa WNW 6.1 km/h 17.7 km/h 53% 0 mm 0 W/m2
17:24 -1.8 °C -10.2 °C 1022.9 hPa WNW 7.7 km/h 17.7 km/h 53% 0 mm 0 W/m2
17:29 -1.9 °C -10.2 °C 1023.2 hPa WNW 8 km/h 17.7 km/h 53% 0 mm 0 W/m2
17:34 -1.9 °C -10.3 °C 1023.6 hPa WNW 6.4 km/h 17.7 km/h 53% 0 mm 0 W/m2
17:39 -2 °C -10.1 °C 1023.6 hPa NW 6.1 km/h 14.5 km/h 54% 0 mm 0 W/m2
17:44 -2.1 °C -10.2 °C 1023.6 hPa NW 6.3 km/h 14.5 km/h 54% 0 mm 0 W/m2
17:49 -2.2 °C -10.2 °C 1023.6 hPa NW 6.8 km/h 17.7 km/h 54% 0 mm 0 W/m2
17:54 -2.2 °C -10.1 °C 1023.6 hPa NW 3.5 km/h 17.7 km/h 54.4% 0 mm 0 W/m2
17:59 -2.2 °C -10.1 °C 1023.9 hPa NW 5.3 km/h 17.7 km/h 54.7% 0 mm 0 W/m2
18:04 -2.3 °C -10.1 °C 1023.9 hPa NW 5.3 km/h 17.7 km/h 55% 0 mm 0 W/m2
18:09 -2.3 °C -10.1 °C 1023.9 hPa WNW 6.4 km/h 17.7 km/h 55% 0 mm 0 W/m2
18:14 -2.4 °C -10.2 °C 1023.9 hPa NW 5.8 km/h 17.7 km/h 55% 0 mm 0 W/m2
18:19 -2.4 °C -10.2 °C 1023.9 hPa WNW 8.7 km/h 19.3 km/h 55% 0 mm 0 W/m2
18:24 -2.4 °C -10.2 °C 1024.3 hPa WNW 9 km/h 20.9 km/h 55% 0 mm 0 W/m2
18:29 -2.4 °C -10.2 °C 1023.9 hPa WNW 9.5 km/h 24.1 km/h 55% 0 mm 0 W/m2
18:34 -2.4 °C -10.3 °C 1023.9 hPa NW 6.6 km/h 24.1 km/h 55% 0 mm 0 W/m2
18:39 -2.5 °C -10.1 °C 1023.9 hPa NW 8.9 km/h 19.3 km/h 55.9% 0 mm 0 W/m2
18:44 -2.6 °C -10.1 °C 1023.9 hPa NW 7.9 km/h 20.9 km/h 56% 0 mm 0 W/m2
18:49 -2.6 °C -10 °C 1023.9 hPa NW 6.3 km/h 20.9 km/h 56.7% 0 mm 0 W/m2
18:54 -2.7 °C -10 °C 1023.9 hPa NW 2.9 km/h 20.9 km/h 57% 0 mm 0 W/m2
18:59 -2.7 °C -10.1 °C 1024.3 hPa WNW 2.9 km/h 20.9 km/h 57% 0 mm 0 W/m2
19:04 -2.8 °C -10.1 °C 1024.3 hPa NW 2.7 km/h 20.9 km/h 57% 0 mm 0 W/m2
19:09 -2.8 °C -10.1 °C 1024.3 hPa NW 0.8 km/h 14.5 km/h 57.4% 0 mm 0 W/m2
19:14 -2.9 °C -10 °C 1024.3 hPa Calm   14.5 km/h 58% 0 mm 0 W/m2
19:19 -3 °C -10.1 °C 1024.3 hPa Calm   14.5 km/h 58% 0 mm 0 W/m2
19:24 -3.1 °C -10.1 °C 1024.3 hPa Calm   14.5 km/h 58.6% 0 mm 0 W/m2
19:29 -3.2 °C -10.1 °C 1024.3 hPa Calm   14.5 km/h 59% 0 mm 0 W/m2
19:34 -3.2 °C -10.1 °C 1024.3 hPa NW 1.8 km/h 14.5 km/h 59.2% 0 mm 0 W/m2
19:39 -3.3 °C -10.1 °C 1024.3 hPa WNW 6 km/h 11.3 km/h 59.6% 0 mm 0 W/m2
19:44 -3.3 °C -10 °C 1024.3 hPa WNW 1.9 km/h 11.3 km/h 60% 0 mm 0 W/m2
19:49 -3.4 °C -10 °C 1024.6 hPa WNW 3.9 km/h 11.3 km/h 60% 0 mm 0 W/m2
19:54 -3.4 °C -10.1 °C 1024.6 hPa WNW 5.5 km/h 17.7 km/h 60% 0 mm 0 W/m2
19:59 -3.4 °C -10.1 °C 1024.6 hPa WNW 4.2 km/h 17.7 km/h 60% 0 mm 0 W/m2
20:04 -3.4 °C -10 °C 1024.3 hPa NW 4.2 km/h 4.8 km/h 60% 0 mm 0 W/m2
20:09 -3.4 °C -9.9 °C 1024.6 hPa WNW 4.3 km/h 17.7 km/h 60.5% 0 mm 0 W/m2
20:14 -3.4 °C -10.1 °C 1024.6 hPa WNW 6 km/h 19.3 km/h 59.7% 0 mm 0 W/m2
20:19 -3.4 °C -10.3 °C 1024.6 hPa WNW 6.8 km/h 19.3 km/h 59.1% 0 mm 0 W/m2
20:24 -3.4 °C -10.2 °C 1024.6 hPa WNW 8.4 km/h 19.3 km/h 59% 0 mm 0 W/m2
20:29 -3.4 °C -10.2 °C 1024.6 hPa WNW 6.3 km/h 24.1 km/h 59.2% 0 mm 0 W/m2
20:34 -3.4 °C -10.2 °C 1024.6 hPa WNW 6.4 km/h 24.1 km/h 59.4% 0 mm 0 W/m2
20:39 -3.4 °C -10.2 °C 1024.9 hPa WNW 7.9 km/h 16.1 km/h 59.7% 0 mm 0 W/m2
20:44 -3.4 °C -10.3 °C 1024.9 hPa WNW 5 km/h 16.1 km/h 59.2% 0 mm 0 W/m2
20:49 -3.5 °C -10.3 °C 1024.9 hPa WNW 5 km/h 16.1 km/h 59.2% 0 mm 0 W/m2
20:54 -3.6 °C -10.2 °C 1024.9 hPa WNW 5.6 km/h 16.1 km/h 60% 0 mm 0 W/m2
20:59 -3.6 °C -10.2 °C 1024.9 hPa WNW 6.9 km/h 19.3 km/h 60% 0 mm 0 W/m2
21:04 -3.6 °C -10.3 °C 1024.9 hPa WNW 4.3 km/h 19.3 km/h 60% 0 mm 0 W/m2
21:09 -3.7 °C -10.3 °C 1024.9 hPa NW 0.5 km/h 8 km/h 60% 0 mm 0 W/m2
21:14 -3.7 °C -10.3 °C 1024.9 hPa NW 1.9 km/h 8 km/h 60% 0 mm 0 W/m2
21:19 -3.8 °C -10.4 °C 1024.6 hPa NW 2.6 km/h 8 km/h 60% 0 mm 0 W/m2
21:24 -3.8 °C -10.4 °C 1024.6 hPa Calm   8 km/h 60% 0 mm 0 W/m2
21:29 -3.9 °C -10.3 °C 1024.9 hPa NW 2.3 km/h 9.7 km/h 60.9% 0 mm 0 W/m2
21:34 -3.9 °C -10.4 °C 1024.9 hPa NW 3.4 km/h 9.7 km/h 61% 0 mm 0 W/m2
21:39 -4 °C -10.4 °C 1024.9 hPa West 1.3 km/h 9.7 km/h 61% 0 mm 0 W/m2
21:44 -4.1 °C -10.5 °C 1024.6 hPa WNW 4.2 km/h 11.3 km/h 61% 0 mm 0 W/m2
21:49 -4.1 °C -10.7 °C 1024.6 hPa NW 6 km/h 16.1 km/h 60.2% 0 mm 0 W/m2
21:54 -4.2 °C -10.7 °C 1024.6 hPa WNW 5.6 km/h 16.1 km/h 60% 0 mm 0 W/m2
21:59 -4.2 °C -10.8 °C 1024.6 hPa NW 7.9 km/h 19.3 km/h 60% 0 mm 0 W/m2
22:04 -4.1 °C -10.7 °C 1024.6 hPa NW 3.5 km/h 19.3 km/h 60% 0 mm 0 W/m2
22:09 -4.2 °C -10.8 °C 1024.6 hPa NW 1.9 km/h 9.7 km/h 60% 0 mm 0 W/m2
22:14 -4.2 °C -10.8 °C 1024.6 hPa NW 6.9 km/h 14.5 km/h 60% 0 mm 0 W/m2
22:19 -4.2 °C -10.8 °C 1024.6 hPa NW 6.1 km/h 14.5 km/h 60% 0 mm 0 W/m2
22:24 -4.2 °C -10.8 °C 1024.6 hPa NW 5 km/h 14.5 km/h 60% 0 mm 0 W/m2
22:29 -4.2 °C -11 °C 1024.9 hPa NNW 0.3 km/h 14.5 km/h 59.3% 0 mm 0 W/m2
22:34 -4.3 °C -11 °C 1024.9 hPa WNW 8 km/h 17.7 km/h 59.3% 0 mm 0 W/m2
22:39 -4.3 °C -11.1 °C 1024.9 hPa WNW 5.6 km/h 17.7 km/h 59% 0 mm 0 W/m2
22:44 -4.3 °C -11.1 °C 1024.9 hPa NW 5.5 km/h 17.7 km/h 59% 0 mm 0 W/m2
22:49 -4.3 °C -11.3 °C 1025.3 hPa NW 1.3 km/h 17.7 km/h 58.1% 0 mm 0 W/m2
22:54 -4.3 °C -11.3 °C 1025.3 hPa NW 0.6 km/h 17.7 km/h 58.3% 0 mm 0 W/m2
22:59 -4.3 °C -11.2 °C 1024.9 hPa NW 3.5 km/h 17.7 km/h 58.8% 0 mm 0 W/m2
23:09 -4.4 °C -11.3 °C 1025.3 hPa Calm     59% 0 mm 0 W/m2
23:14 -4.6 °C -11.3 °C 1025.3 hPa NW 3.9 km/h 11.3 km/h 59% 0 mm 0 W/m2
23:19 -4.6 °C -11.4 °C 1025.3 hPa NW 3.1 km/h 11.3 km/h 59% 0 mm 0 W/m2
23:24 -4.7 °C -11.4 °C 1024.9 hPa NW 1.3 km/h 11.3 km/h 59.2% 0 mm 0 W/m2
23:29 -4.7 °C -11.3 °C 1024.9 hPa NW 1.8 km/h 11.3 km/h 60% 0 mm 0 W/m2
23:34 -4.8 °C -11.4 °C 1024.9 hPa NW 1.8 km/h 11.3 km/h 60% 0 mm 0 W/m2
23:39 -4.9 °C -11.5 °C 1025.3 hPa NW 1.3 km/h 9.7 km/h 60% 0 mm 0 W/m2
23:44 -5 °C -11.6 °C 1025.3 hPa NW 0.2 km/h 9.7 km/h 60% 0 mm 0 W/m2
23:49 -5.1 °C -11.6 °C 1025.3 hPa NW 1.1 km/h 9.7 km/h 60.4% 0 mm 0 W/m2
23:54 -5.2 °C -11.6 °C 1025.6 hPa WNW 2.9 km/h 11.3 km/h 61% 0 mm 0 W/m2
23:59 -5.3 °C -11.6 °C 1025.6 hPa NW 6.3 km/h 16.1 km/h 61% 0 mm 0 W/m2
Hartford County Weather
Compliments of Weather Underground - 4 mb